sensor_id;sensor_type;location;lat;lon;timestamp;pressure;altitude;pressure_sealevel;temperature;humidity
6899;BME280;3488;42.616;23.350;2022-08-01T00:01:25;63964.97;;;19.02;60.97
6899;BME280;3488;42.616;23.350;2022-08-01T00:03:52;63960.78;;;18.98;59.99
6899;BME280;3488;42.616;23.350;2022-08-01T00:06:19;63959.22;;;18.94;59.90
6899;BME280;3488;42.616;23.350;2022-08-01T00:08:46;63956.63;;;18.94;59.19
6899;BME280;3488;42.616;23.350;2022-08-01T00:11:13;63959.22;;;18.94;58.94
6899;BME280;3488;42.616;23.350;2022-08-01T00:13:41;63956.59;;;18.92;58.59
6899;BME280;3488;42.616;23.350;2022-08-01T00:16:08;63959.72;;;18.95;57.63
6899;BME280;3488;42.616;23.350;2022-08-01T00:18:35;63955.00;;;18.88;57.42
6899;BME280;3488;42.616;23.350;2022-08-01T00:21:03;63956.63;;;18.94;57.31
6899;BME280;3488;42.616;23.350;2022-08-01T00:23:30;63955.06;;;18.95;56.47
6899;BME280;3488;42.616;23.350;2022-08-01T00:25:56;63952.44;;;18.88;55.85
6899;BME280;3488;42.616;23.350;2022-08-01T00:28:24;63946.75;;;18.87;55.56
6899;BME280;3488;42.616;23.350;2022-08-01T00:30:52;63949.25;;;18.80;55.29
6899;BME280;3488;42.616;23.350;2022-08-01T00:33:19;63946.16;;;18.82;54.91
6899;BME280;3488;42.616;23.350;2022-08-01T00:35:46;63946.66;;;18.80;54.95
6899;BME280;3488;42.616;23.350;2022-08-01T00:38:12;63941.47;;;18.77;54.83
6899;BME280;3488;42.616;23.350;2022-08-01T00:40:42;63946.16;;;18.79;54.70
6899;BME280;3488;42.616;23.350;2022-08-01T00:43:09;63933.16;;;18.72;54.05
6899;BME280;3488;42.616;23.350;2022-08-01T00:45:36;63939.94;;;18.76;53.02
6899;BME280;3488;42.616;23.350;2022-08-01T00:48:05;63942.56;;;18.81;52.22
6899;BME280;3488;42.616;23.350;2022-08-01T00:50:32;63941.47;;;18.77;52.14
6899;BME280;3488;42.616;23.350;2022-08-01T00:53:00;63938.91;;;18.77;52.09
6899;BME280;3488;42.616;23.350;2022-08-01T00:55:28;63945.63;;;18.79;51.60
6899;BME280;3488;42.616;23.350;2022-08-01T00:57:55;63933.16;;;18.72;52.10
6899;BME280;3488;42.616;23.350;2022-08-01T01:00:22;63930.00;;;18.66;53.92
6899;BME280;3488;42.616;23.350;2022-08-01T01:02:50;63912.84;;;18.52;64.14
6899;BME280;3488;42.616;23.350;2022-08-01T01:05:18;63879.94;;;18.13;76.23
6899;BME280;3488;42.616;23.350;2022-08-01T01:07:49;63847.69;;;17.87;81.67
6899;BME280;3488;42.616;23.350;2022-08-01T01:10:22;63841.94;;;17.79;83.53
6899;BME280;3488;42.616;23.350;2022-08-01T01:12:54;63828.44;;;17.71;86.49
6899;BME280;3488;42.616;23.350;2022-08-01T01:15:26;63832.59;;;17.72;85.82
6899;BME280;3488;42.616;23.350;2022-08-01T01:17:58;63824.78;;;17.65;86.14
6899;BME280;3488;42.616;23.350;2022-08-01T01:20:32;63816.97;;;17.57;86.26
6899;BME280;3488;42.616;23.350;2022-08-01T01:23:12;63798.22;;;17.42;86.25
6899;BME280;3488;42.616;23.350;2022-08-01T01:26:04;63795.06;;;17.36;74.88
6899;BME280;3488;42.616;23.350;2022-08-01T01:31:14;63805.97;;;17.44;64.21
6899;BME280;3488;42.616;23.350;2022-08-01T01:33:44;63818.50;;;17.56;59.70
6899;BME280;3488;42.616;23.350;2022-08-01T01:36:12;63824.25;;;17.64;57.88
6899;BME280;3488;42.616;23.350;2022-08-01T01:38:42;63826.41;;;17.74;56.18
6899;BME280;3488;42.616;23.350;2022-08-01T01:41:11;63850.84;;;17.92;53.61
6899;BME280;3488;42.616;23.350;2022-08-01T01:43:39;63864.84;;;18.01;52.45
6899;BME280;3488;42.616;23.350;2022-08-01T01:46:08;63875.25;;;18.08;51.52
6899;BME280;3488;42.616;23.350;2022-08-01T01:48:38;63875.84;;;18.16;50.78
6899;BME280;3488;42.616;23.350;2022-08-01T01:51:06;63892.44;;;18.27;50.40
6899;BME280;3488;42.616;23.350;2022-08-01T01:53:35;63891.94;;;18.29;50.59
6899;BME280;3488;42.616;23.350;2022-08-01T01:56:02;63886.78;;;18.29;49.90
6899;BME280;3488;42.616;23.350;2022-08-01T01:58:31;63886.72;;;18.22;50.83
6899;BME280;3488;42.616;23.350;2022-08-01T02:01:01;63890.88;;;18.26;50.49
6899;BME280;3488;42.616;23.350;2022-08-01T02:03:29;63892.97;;;18.28;50.41
6899;BME280;3488;42.616;23.350;2022-08-01T02:05:59;63877.94;;;18.18;49.91
6899;BME280;3488;42.616;23.350;2022-08-01T02:08:29;63879.97;;;18.18;49.25
6899;BME280;3488;42.616;23.350;2022-08-01T02:10:57;63889.34;;;18.27;48.94
6899;BME280;3488;42.616;23.350;2022-08-01T02:13:43;63896.16;;;18.36;48.01
6899;BME280;3488;42.616;23.350;2022-08-01T02:16:11;63907.59;;;18.42;47.33
6899;BME280;3488;42.616;23.350;2022-08-01T02:18:39;63914.38;;;18.51;47.33
6899;BME280;3488;42.616;23.350;2022-08-01T02:21:11;63914.94;;;18.54;46.75
6899;BME280;3488;42.616;23.350;2022-08-01T02:23:40;63911.81;;;18.54;46.33
6899;BME280;3488;42.616;23.350;2022-08-01T02:26:09;63933.13;;;18.69;45.87
6899;BME280;3488;42.616;23.350;2022-08-01T02:28:42;63928.94;;;18.63;46.24
6899;BME280;3488;42.616;23.350;2022-08-01T02:31:13;63919.09;;;18.58;47.04
6899;BME280;3488;42.616;23.350;2022-08-01T02:33:53;63923.25;;;18.60;47.25
6899;BME280;3488;42.616;23.350;2022-08-01T02:36:25;63925.34;;;18.62;47.44
6899;BME280;3488;42.616;23.350;2022-08-01T02:38:54;63919.59;;;18.59;47.52
6899;BME280;3488;42.616;23.350;2022-08-01T02:41:24;63923.78;;;18.60;48.08
6899;BME280;3488;42.616;23.350;2022-08-01T02:43:56;63920.09;;;18.54;48.29
6899;BME280;3488;42.616;23.350;2022-08-01T02:46:26;63916.47;;;18.53;48.03
6899;BME280;3488;42.616;23.350;2022-08-01T02:48:56;63925.88;;;18.65;47.95
6899;BME280;3488;42.616;23.350;2022-08-01T02:51:26;63925.88;;;18.65;48.35
6899;BME280;3488;42.616;23.350;2022-08-01T02:53:55;63928.41;;;18.62;47.64
6899;BME280;3488;42.616;23.350;2022-08-01T02:56:24;63934.19;;;18.73;47.94
6899;BME280;3488;42.616;23.350;2022-08-01T02:59:01;63943.53;;;18.77;47.48
6899;BME280;3488;42.616;23.350;2022-08-01T03:01:29;63941.97;;;18.75;47.91
6899;BME280;3488;42.616;23.350;2022-08-01T03:03:56;63939.41;;;18.78;48.01
6899;BME280;3488;42.616;23.350;2022-08-01T03:06:26;63940.41;;;18.74;48.07
6899;BME280;3488;42.616;23.350;2022-08-01T03:08:55;63936.75;;;18.70;48.42
6899;BME280;3488;42.616;23.350;2022-08-01T03:11:23;63930.56;;;18.69;48.71
6899;BME280;3488;42.616;23.350;2022-08-01T03:13:53;63927.44;;;18.66;49.13
6899;BME280;3488;42.616;23.350;2022-08-01T03:16:23;63932.63;;;18.69;48.95
6899;BME280;3488;42.616;23.350;2022-08-01T03:18:53;63931.56;;;18.65;49.59
6899;BME280;3488;42.616;23.350;2022-08-01T03:21:23;63927.38;;;18.61;49.66
6899;BME280;3488;42.616;23.350;2022-08-01T03:23:52;63919.59;;;18.56;49.71
6899;BME280;3488;42.616;23.350;2022-08-01T03:26:24;63920.66;;;18.60;53.06
6899;BME280;3488;42.616;23.350;2022-08-01T03:28:55;63909.69;;;18.47;55.70
6899;BME280;3488;42.616;23.350;2022-08-01T03:31:24;63902.88;;;18.37;56.82
6899;BME280;3488;42.616;23.350;2022-08-01T03:33:52;63895.59;;;18.30;58.19
6899;BME280;3488;42.616;23.350;2022-08-01T03:36:22;63884.69;;;18.25;59.33
6899;BME280;3488;42.616;23.350;2022-08-01T03:38:56;63864.38;;;18.05;60.90
6899;BME280;3488;42.616;23.350;2022-08-01T03:41:26;63864.88;;;18.03;57.29
6899;BME280;3488;42.616;23.350;2022-08-01T03:43:57;63864.88;;;18.03;57.10
6899;BME280;3488;42.616;23.350;2022-08-01T03:46:28;63864.91;;;18.06;56.25
6899;BME280;3488;42.616;23.350;2022-08-01T03:49:00;63866.41;;;18.02;58.14
6899;BME280;3488;42.616;23.350;2022-08-01T03:51:30;63866.94;;;18.03;59.30
6899;BME280;3488;42.616;23.350;2022-08-01T03:54:01;63861.25;;;18.02;59.49
6899;BME280;3488;42.616;23.350;2022-08-01T03:56:29;63857.66;;;18.04;58.25
6899;BME280;3488;42.616;23.350;2022-08-01T03:58:58;63874.78;;;18.15;58.15
6899;BME280;3488;42.616;23.350;2022-08-01T04:01:26;63880.47;;;18.16;58.31
6899;BME280;3488;42.616;23.350;2022-08-01T04:03:55;63885.75;;;18.28;56.74
6899;BME280;3488;42.616;23.350;2022-08-01T04:06:22;63903.44;;;18.40;54.61
6899;BME280;3488;42.616;23.350;2022-08-01T04:08:49;63926.31;;;18.58;53.11
6899;BME280;3488;42.616;23.350;2022-08-01T04:11:24;63933.66;;;18.67;55.15
6899;BME280;3488;42.616;23.350;2022-08-01T04:14:09;63931.00;;;18.62;56.85
6899;BME280;3488;42.616;23.350;2022-08-01T04:16:37;63935.16;;;18.64;58.03
6899;BME280;3488;42.616;23.350;2022-08-01T04:19:04;63927.97;;;18.69;57.78
6899;BME280;3488;42.616;23.350;2022-08-01T04:21:34;63943.00;;;18.76;55.94
6899;BME280;3488;42.616;23.350;2022-08-01T04:24:06;63944.59;;;18.80;55.45
6899;BME280;3488;42.616;23.350;2022-08-01T04:26:36;63958.69;;;18.94;53.82
6899;BME280;3488;42.616;23.350;2022-08-01T04:29:05;63963.94;;;19.04;54.94
6899;BME280;3488;42.616;23.350;2022-08-01T04:31:35;63972.72;;;19.05;54.55
6899;BME280;3488;42.616;23.350;2022-08-01T04:34:04;63983.16;;;19.17;54.59
6899;BME280;3488;42.616;23.350;2022-08-01T04:36:33;63983.16;;;19.15;55.81
6899;BME280;3488;42.616;23.350;2022-08-01T04:39:02;63986.31;;;19.20;58.05
6899;BME280;3488;42.616;23.350;2022-08-01T04:41:31;63982.19;;;19.21;57.88
6899;BME280;3488;42.616;23.350;2022-08-01T04:44:00;63998.84;;;19.32;58.66
6899;BME280;3488;42.616;23.350;2022-08-01T04:46:28;64004.06;;;19.37;59.66
6899;BME280;3488;42.616;23.350;2022-08-01T04:48:56;63995.69;;;19.29;61.73
6899;BME280;3488;42.616;23.350;2022-08-01T04:51:23;64014.97;;;19.45;60.52
6899;BME280;3488;42.616;23.350;2022-08-01T04:53:50;64003.03;;;19.39;61.11
6899;BME280;3488;42.616;23.350;2022-08-01T04:56:17;63986.81;;;19.21;60.54
6899;BME280;3488;42.616;23.350;2022-08-01T04:58:46;63980.56;;;19.15;59.60
6899;BME280;3488;42.616;23.350;2022-08-01T05:01:14;63960.78;;;18.98;58.92
6899;BME280;3488;42.616;23.350;2022-08-01T05:03:41;63974.34;;;19.11;59.00
6899;BME280;3488;42.616;23.350;2022-08-01T05:06:09;63978.53;;;19.15;61.82
6899;BME280;3488;42.616;23.350;2022-08-01T05:08:36;63985.25;;;19.19;57.65
6899;BME280;3488;42.616;23.350;2022-08-01T05:11:03;63994.13;;;19.28;58.13
6899;BME280;3488;42.616;23.350;2022-08-01T05:13:30;64000.94;;;19.34;56.56
6899;BME280;3488;42.616;23.350;2022-08-01T05:15:57;64020.19;;;19.50;57.05
6899;BME280;3488;42.616;23.350;2022-08-01T05:18:25;64030.69;;;19.68;54.47
6899;BME280;3488;42.616;23.350;2022-08-01T05:20:53;64052.56;;;19.87;53.71
6899;BME280;3488;42.616;23.350;2022-08-01T05:23:20;64083.34;;;20.14;52.02
6899;BME280;3488;42.616;23.350;2022-08-01T05:25:47;64101.09;;;20.31;49.77
6899;BME280;3488;42.616;23.350;2022-08-01T05:28:14;64113.09;;;20.45;48.10
6899;BME280;3488;42.616;23.350;2022-08-01T05:30:42;64112.06;;;20.44;47.30
6899;BME280;3488;42.616;23.350;2022-08-01T05:33:08;64136.59;;;20.67;47.97
6899;BME280;3488;42.616;23.350;2022-08-01T05:35:37;64148.09;;;20.79;46.84
6899;BME280;3488;42.616;23.350;2022-08-01T05:38:04;64161.09;;;20.86;46.56
6899;BME280;3488;42.616;23.350;2022-08-01T05:40:31;64168.94;;;20.96;46.37
6899;BME280;3488;42.616;23.350;2022-08-01T05:42:57;64152.28;;;20.83;45.81
6899;BME280;3488;42.616;23.350;2022-08-01T05:45:24;64164.78;;;20.95;45.91
6899;BME280;3488;42.616;23.350;2022-08-01T05:47:51;64166.31;;;20.91;45.90
6899;BME280;3488;42.616;23.350;2022-08-01T05:50:18;64167.34;;;20.90;46.43
6899;BME280;3488;42.616;23.350;2022-08-01T05:52:46;64154.84;;;20.83;46.79
6899;BME280;3488;42.616;23.350;2022-08-01T05:55:14;64167.91;;;20.95;46.95
6899;BME280;3488;42.616;23.350;2022-08-01T05:57:40;64182.53;;;21.07;45.96
6899;BME280;3488;42.616;23.350;2022-08-01T06:00:09;64178.88;;;21.06;46.87
6899;BME280;3488;42.616;23.350;2022-08-01T06:02:40;64161.66;;;20.92;47.10
6899;BME280;3488;42.616;23.350;2022-08-01T06:05:08;64171.56;;;20.99;46.73
6899;BME280;3488;42.616;23.350;2022-08-01T06:07:35;64177.84;;;21.05;46.66
6899;BME280;3488;42.616;23.350;2022-08-01T06:10:07;64184.63;;;21.11;46.37
6899;BME280;3488;42.616;23.350;2022-08-01T06:12:34;64194.56;;;21.21;46.22
6899;BME280;3488;42.616;23.350;2022-08-01T06:15:01;64158.03;;;20.91;47.12
6899;BME280;3488;42.616;23.350;2022-08-01T06:17:28;64161.63;;;20.89;47.98
6899;BME280;3488;42.616;23.350;2022-08-01T06:19:55;64162.72;;;20.93;47.34
6899;BME280;3488;42.616;23.350;2022-08-01T06:22:22;64175.78;;;21.08;47.80
6899;BME280;3488;42.616;23.350;2022-08-01T06:24:49;64197.16;;;21.21;46.94
6899;BME280;3488;42.616;23.350;2022-08-01T06:27:18;64195.06;;;21.21;46.77
6899;BME280;3488;42.616;23.350;2022-08-01T06:29:45;64183.59;;;21.10;47.25
6899;BME280;3488;42.616;23.350;2022-08-01T06:32:11;64189.31;;;21.16;47.37
6899;BME280;3488;42.616;23.350;2022-08-01T06:34:38;64198.72;;;21.25;47.38
6899;BME280;3488;42.616;23.350;2022-08-01T06:37:05;64202.91;;;21.31;46.57
6899;BME280;3488;42.616;23.350;2022-08-01T06:39:32;64212.81;;;21.36;47.34
6899;BME280;3488;42.616;23.350;2022-08-01T06:41:59;64205.53;;;21.34;46.79
6899;BME280;3488;42.616;23.350;2022-08-01T06:44:27;64211.78;;;21.37;47.26
6899;BME280;3488;42.616;23.350;2022-08-01T06:46:54;64202.91;;;21.29;47.38
6899;BME280;3488;42.616;23.350;2022-08-01T06:49:21;64200.84;;;21.29;46.78
6899;BME280;3488;42.616;23.350;2022-08-01T06:51:47;64220.66;;;21.46;47.54
6899;BME280;3488;42.616;23.350;2022-08-01T06:54:14;64224.31;;;21.49;47.73
6899;BME280;3488;42.616;23.350;2022-08-01T06:56:42;64223.84;;;21.54;47.16
6899;BME280;3488;42.616;23.350;2022-08-01T06:59:09;64231.66;;;21.59;47.53
6899;BME280;3488;42.616;23.350;2022-08-01T07:01:37;64233.22;;;21.60;47.49
6899;BME280;3488;42.616;23.350;2022-08-01T07:04:04;64248.88;;;21.73;47.43
6899;BME280;3488;42.616;23.350;2022-08-01T07:06:31;64246.75;;;21.68;46.93
6899;BME280;3488;42.616;23.350;2022-08-01T07:08:57;64234.22;;;21.59;47.97
6899;BME280;3488;42.616;23.350;2022-08-01T07:11:26;64249.91;;;21.71;47.72
6899;BME280;3488;42.616;23.350;2022-08-01T07:13:53;64249.38;;;21.71;47.95
6899;BME280;3488;42.616;23.350;2022-08-01T07:16:20;64267.16;;;21.88;47.63
6899;BME280;3488;42.616;23.350;2022-08-01T07:18:48;64272.94;;;21.96;47.34
6899;BME280;3488;42.616;23.350;2022-08-01T07:21:15;64262.47;;;21.86;48.78
6899;BME280;3488;42.616;23.350;2022-08-01T07:23:42;64248.34;;;21.72;47.78
6899;BME280;3488;42.616;23.350;2022-08-01T07:26:09;64259.84;;;21.84;47.70
6899;BME280;3488;42.616;23.350;2022-08-01T07:28:36;64263.00;;;21.89;47.33
6899;BME280;3488;42.616;23.350;2022-08-01T07:31:03;64268.22;;;21.92;47.66
6899;BME280;3488;42.616;23.350;2022-08-01T07:33:30;64267.75;;;21.96;47.58
6899;BME280;3488;42.616;23.350;2022-08-01T07:35:58;64284.94;;;22.08;48.16
6899;BME280;3488;42.616;23.350;2022-08-01T07:38:25;64270.84;;;21.97;48.07
6899;BME280;3488;42.616;23.350;2022-08-01T07:40:52;64299.03;;;22.19;47.61
6899;BME280;3488;42.616;23.350;2022-08-01T07:43:20;64294.34;;;22.17;48.60
6899;BME280;3488;42.616;23.350;2022-08-01T07:45:47;64312.09;;;22.29;46.68
6899;BME280;3488;42.616;23.350;2022-08-01T07:48:14;64299.06;;;22.26;47.08
6899;BME280;3488;42.616;23.350;2022-08-01T07:50:40;64304.28;;;22.29;46.74
6899;BME280;3488;42.616;23.350;2022-08-01T07:53:09;64310.06;;;22.37;46.05
6899;BME280;3488;42.616;23.350;2022-08-01T07:55:36;64336.69;;;22.57;46.31
6899;BME280;3488;42.616;23.350;2022-08-01T07:58:03;64278.72;;;22.07;45.71
6899;BME280;3488;42.616;23.350;2022-08-01T08:00:30;64299.59;;;22.24;45.64
6899;BME280;3488;42.616;23.350;2022-08-01T08:02:57;64278.69;;;22.02;47.04
6899;BME280;3488;42.616;23.350;2022-08-01T08:05:25;64293.81;;;22.14;48.40
6899;BME280;3488;42.616;23.350;2022-08-01T08:07:52;64316.81;;;22.38;46.82
6899;BME280;3488;42.616;23.350;2022-08-01T08:10:20;64334.66;;;22.60;46.95
6899;BME280;3488;42.616;23.350;2022-08-01T08:12:47;64313.66;;;22.33;46.96
6899;BME280;3488;42.616;23.350;2022-08-01T08:15:14;64327.84;;;22.54;46.61
6899;BME280;3488;42.616;23.350;2022-08-01T08:17:41;64329.91;;;22.53;46.04
6899;BME280;3488;42.616;23.350;2022-08-01T08:20:08;64306.91;;;22.31;45.50
6899;BME280;3488;42.616;23.350;2022-08-01T08:22:36;64321.53;;;22.45;45.88
6899;BME280;3488;42.616;23.350;2022-08-01T08:25:04;64321.00;;;22.40;45.83
6899;BME280;3488;42.616;23.350;2022-08-01T08:27:32;64325.19;;;22.46;47.05
6899;BME280;3488;42.616;23.350;2022-08-01T08:29:59;64326.75;;;22.48;46.78
6899;BME280;3488;42.616;23.350;2022-08-01T08:32:26;64337.22;;;22.55;46.11
6899;BME280;3488;42.616;23.350;2022-08-01T08:34:53;64343.50;;;22.66;45.14
6899;BME280;3488;42.616;23.350;2022-08-01T08:37:20;64353.97;;;22.74;44.80
6899;BME280;3488;42.616;23.350;2022-08-01T08:39:47;64340.88;;;22.59;44.68
6899;BME280;3488;42.616;23.350;2022-08-01T08:42:14;64356.56;;;22.76;44.09
6899;BME280;3488;42.616;23.350;2022-08-01T08:44:43;64350.81;;;22.71;45.46
6899;BME280;3488;42.616;23.350;2022-08-01T08:47:11;64335.16;;;22.61;46.49
6899;BME280;3488;42.616;23.350;2022-08-01T08:49:39;64330.44;;;22.54;46.13
6899;BME280;3488;42.616;23.350;2022-08-01T08:52:09;64306.88;;;22.29;46.93
6899;BME280;3488;42.616;23.350;2022-08-01T08:54:38;64325.22;;;22.51;45.42
6899;BME280;3488;42.616;23.350;2022-08-01T08:57:05;64327.28;;;22.48;46.33
6899;BME280;3488;42.616;23.350;2022-08-01T08:59:32;64322.59;;;22.46;45.16
6899;BME280;3488;42.616;23.350;2022-08-01T09:02:01;64328.81;;;22.45;45.38
6899;BME280;3488;42.616;23.350;2022-08-01T09:04:30;64339.28;;;22.57;45.48
6899;BME280;3488;42.616;23.350;2022-08-01T09:06:57;64360.25;;;22.82;44.46
6899;BME280;3488;42.616;23.350;2022-08-01T09:09:24;64336.19;;;22.57;44.37
6899;BME280;3488;42.616;23.350;2022-08-01T09:11:54;64340.91;;;22.64;44.10
6899;BME280;3488;42.616;23.350;2022-08-01T09:14:20;64356.59;;;22.79;43.99
6899;BME280;3488;42.616;23.350;2022-08-01T09:17:01;64373.84;;;22.96;44.27
6899;BME280;3488;42.616;23.350;2022-08-01T09:19:35;64417.78;;;23.35;43.51
6899;BME280;3488;42.616;23.350;2022-08-01T09:22:05;64379.59;;;23.01;42.74
6899;BME280;3488;42.616;23.350;2022-08-01T09:24:33;64352.38;;;22.70;44.37
6899;BME280;3488;42.616;23.350;2022-08-01T09:27:01;64389.50;;;23.08;44.79
6899;BME280;3488;42.616;23.350;2022-08-01T09:29:42;64405.22;;;23.26;43.17
6899;BME280;3488;42.616;23.350;2022-08-01T09:32:11;64407.28;;;23.23;43.70
6899;BME280;3488;42.616;23.350;2022-08-01T09:34:38;64384.81;;;23.06;44.54
6899;BME280;3488;42.616;23.350;2022-08-01T09:37:05;64395.25;;;23.14;45.24
6899;BME280;3488;42.616;23.350;2022-08-01T09:39:34;64409.97;;;23.35;44.37
6899;BME280;3488;42.616;23.350;2022-08-01T09:42:19;64396.31;;;23.15;44.49
6899;BME280;3488;42.616;23.350;2022-08-01T09:44:47;64396.84;;;23.15;44.32
6899;BME280;3488;42.616;23.350;2022-08-01T09:47:16;64408.31;;;23.24;44.40
6899;BME280;3488;42.616;23.350;2022-08-01T09:49:43;64403.09;;;23.19;44.29
6899;BME280;3488;42.616;23.350;2022-08-01T09:52:13;64415.69;;;23.36;44.21
6899;BME280;3488;42.616;23.350;2022-08-01T09:54:41;64409.34;;;23.25;45.00
6899;BME280;3488;42.616;23.350;2022-08-01T09:57:11;64403.59;;;23.17;45.19
6899;BME280;3488;42.616;23.350;2022-08-01T09:59:40;64410.94;;;23.26;45.50
6899;BME280;3488;42.616;23.350;2022-08-01T10:02:09;64408.34;;;23.26;46.10
6899;BME280;3488;42.616;23.350;2022-08-01T10:04:47;64411.50;;;23.32;46.09
6899;BME280;3488;42.616;23.350;2022-08-01T10:07:15;64441.84;;;23.58;45.45
6899;BME280;3488;42.616;23.350;2022-08-01T10:09:43;64470.09;;;23.83;44.99
6899;BME280;3488;42.616;23.350;2022-08-01T10:12:12;64463.81;;;23.82;44.14
6899;BME280;3488;42.616;23.350;2022-08-01T10:14:40;64492.06;;;24.02;43.65
6899;BME280;3488;42.616;23.350;2022-08-01T10:17:09;64506.22;;;24.18;43.64
6899;BME280;3488;42.616;23.350;2022-08-01T10:19:39;64516.69;;;24.30;43.52
6899;BME280;3488;42.616;23.350;2022-08-01T10:22:10;64544.41;;;24.54;42.62
6899;BME280;3488;42.616;23.350;2022-08-01T10:24:39;64474.78;;;23.87;43.19
6899;BME280;3488;42.616;23.350;2022-08-01T10:27:09;64449.16;;;23.68;44.31
6899;BME280;3488;42.616;23.350;2022-08-01T10:29:40;64462.75;;;23.76;42.83
6899;BME280;3488;42.616;23.350;2022-08-01T10:32:08;64447.59;;;23.64;43.89
6899;BME280;3488;42.616;23.350;2022-08-01T10:34:37;64487.91;;;24.05;43.51
6899;BME280;3488;42.616;23.350;2022-08-01T10:37:04;64492.09;;;24.07;42.16
6899;BME280;3488;42.616;23.350;2022-08-01T10:39:34;64515.63;;;24.29;42.18
6899;BME280;3488;42.616;23.350;2022-08-01T10:42:01;64550.72;;;24.65;41.60
6899;BME280;3488;42.616;23.350;2022-08-01T10:44:30;64510.91;;;24.25;42.58
6899;BME280;3488;42.616;23.350;2022-08-01T10:47:03;64542.88;;;24.55;41.54
6899;BME280;3488;42.616;23.350;2022-08-01T10:49:34;64560.66;;;24.70;41.02
6899;BME280;3488;42.616;23.350;2022-08-01T10:52:03;64555.94;;;24.65;40.51
6899;BME280;3488;42.616;23.350;2022-08-01T10:54:39;64549.66;;;24.62;41.05
6899;BME280;3488;42.616;23.350;2022-08-01T10:57:07;64495.75;;;24.10;41.43
6899;BME280;3488;42.616;23.350;2022-08-01T10:59:34;64533.41;;;24.44;41.56
6899;BME280;3488;42.616;23.350;2022-08-01T11:02:05;64516.16;;;24.27;42.26
6899;BME280;3488;42.616;23.350;2022-08-01T11:04:41;64524.53;;;24.38;41.80
6899;BME280;3488;42.616;23.350;2022-08-01T11:07:16;64540.78;;;24.53;41.34
6899;BME280;3488;42.616;23.350;2022-08-01T11:09:46;64569.03;;;24.75;41.92
6899;BME280;3488;42.616;23.350;2022-08-01T11:12:14;64541.81;;;24.57;42.14
6899;BME280;3488;42.616;23.350;2022-08-01T11:17:50;64568.00;;;24.77;41.40
6899;BME280;3488;42.616;23.350;2022-08-01T11:20:18;64556.47;;;24.68;41.16
6899;BME280;3488;42.616;23.350;2022-08-01T11:26:15;64542.34;;;24.57;41.98
6899;BME280;3488;42.616;23.350;2022-08-01T11:28:45;64568.53;;;24.82;41.91
6899;BME280;3488;42.616;23.350;2022-08-01T11:31:29;64577.94;;;24.89;40.75
6899;BME280;3488;42.616;23.350;2022-08-01T11:33:56;64565.91;;;24.80;40.76
6899;BME280;3488;42.616;23.350;2022-08-01T11:36:24;64517.22;;;24.31;41.82
6899;BME280;3488;42.616;23.350;2022-08-01T11:39:12;64472.72;;;23.88;43.29
6899;BME280;3488;42.616;23.350;2022-08-01T11:41:42;64515.63;;;24.29;43.56
6899;BME280;3488;42.616;23.350;2022-08-01T11:44:11;64526.09;;;24.39;43.21
6899;BME280;3488;42.616;23.350;2022-08-01T11:46:53;64539.72;;;24.55;42.41
6899;BME280;3488;42.616;23.350;2022-08-01T11:49:45;64506.78;;;24.26;42.14
6899;BME280;3488;42.616;23.350;2022-08-01T11:52:15;64491.56;;;24.04;43.60
6899;BME280;3488;42.616;23.350;2022-08-01T11:54:44;64489.47;;;24.07;42.18
6899;BME280;3488;42.616;23.350;2022-08-01T11:57:14;64511.44;;;24.23;43.02
6899;BME280;3488;42.616;23.350;2022-08-01T11:59:42;64549.13;;;24.61;42.11
6899;BME280;3488;42.616;23.350;2022-08-01T12:02:18;64538.66;;;24.51;42.57
6899;BME280;3488;42.616;23.350;2022-08-01T12:04:47;64523.47;;;24.34;42.48
6899;BME280;3488;42.616;23.350;2022-08-01T12:07:16;64502.03;;;24.16;43.43
6899;BME280;3488;42.616;23.350;2022-08-01T12:09:43;64530.78;;;24.36;42.76
6899;BME280;3488;42.616;23.350;2022-08-01T12:12:12;64529.25;;;24.45;42.95
6899;BME280;3488;42.616;23.350;2022-08-01T12:14:43;64524.03;;;24.40;42.64
6899;BME280;3488;42.616;23.350;2022-08-01T12:17:10;64544.94;;;24.55;43.08
6899;BME280;3488;42.616;23.350;2022-08-01T12:19:37;64564.84;;;24.74;42.81
6899;BME280;3488;42.616;23.350;2022-08-01T12:22:10;64610.97;;;25.21;41.84
6899;BME280;3488;42.616;23.350;2022-08-01T12:24:38;64593.13;;;25.01;41.39
6899;BME280;3488;42.616;23.350;2022-08-01T12:27:06;64538.69;;;24.54;42.64
6899;BME280;3488;42.616;23.350;2022-08-01T12:29:38;64566.44;;;24.78;42.24
6899;BME280;3488;42.616;23.350;2022-08-01T12:32:25;64561.22;;;24.73;42.28
6899;BME280;3488;42.616;23.350;2022-08-01T12:34:53;64620.91;;;25.35;41.68
6899;BME280;3488;42.616;23.350;2022-08-01T12:37:21;64647.66;;;25.56;40.98
6899;BME280;3488;42.616;23.350;2022-08-01T12:39:48;64663.38;;;25.73;40.42
6899;BME280;3488;42.616;23.350;2022-08-01T12:42:15;64679.09;;;25.83;40.35
6899;BME280;3488;42.616;23.350;2022-08-01T12:44:46;64712.63;;;26.18;39.80
6899;BME280;3488;42.616;23.350;2022-08-01T12:47:14;64728.88;;;26.34;39.41
6899;BME280;3488;42.616;23.350;2022-08-01T12:49:42;64725.22;;;26.28;39.26
6899;BME280;3488;42.616;23.350;2022-08-01T12:52:11;64689.03;;;25.93;40.10
6899;BME280;3488;42.616;23.350;2022-08-01T12:55:09;64626.13;;;25.35;40.47
6899;BME280;3488;42.616;23.350;2022-08-01T12:57:38;64613.06;;;25.23;41.10
6899;BME280;3488;42.616;23.350;2022-08-01T13:00:14;64693.78;;;26.02;40.17
6899;BME280;3488;42.616;23.350;2022-08-01T13:02:41;64737.28;;;26.39;38.83
6899;BME280;3488;42.616;23.350;2022-08-01T13:05:09;64700.59;;;26.09;39.12
6899;BME280;3488;42.616;23.350;2022-08-01T13:07:42;64737.28;;;26.42;38.89
6899;BME280;3488;42.616;23.350;2022-08-01T13:10:11;64769.28;;;26.72;38.33
6899;BME280;3488;42.616;23.350;2022-08-01T13:12:39;64749.34;;;26.56;38.76
6899;BME280;3488;42.616;23.350;2022-08-01T13:15:25;64693.75;;;25.97;38.81
6899;BME280;3488;42.616;23.350;2022-08-01T13:17:52;64728.88;;;26.31;38.64
6899;BME280;3488;42.616;23.350;2022-08-01T13:20:28;64685.88;;;25.92;38.35
6899;BME280;3488;42.616;23.350;2022-08-01T13:23:09;64704.25;;;26.10;38.71
6899;BME280;3488;42.616;23.350;2022-08-01T13:25:50;64724.69;;;26.27;39.11
6899;BME280;3488;42.616;23.350;2022-08-01T13:28:19;64779.25;;;26.82;37.69
6899;BME280;3488;42.616;23.350;2022-08-01T13:30:56;64823.31;;;27.24;36.95